createdAt,value
2022-11-22T00:02:23.455Z,2.58
2022-11-22T00:05:31.846Z,2.62
2022-11-22T00:08:43.081Z,2.64
2022-11-22T00:11:53.032Z,2.74
2022-11-22T00:15:01.432Z,2.83
2022-11-22T00:18:09.850Z,2.65
2022-11-22T00:21:18.927Z,2.57
2022-11-22T00:24:27.148Z,2.54
2022-11-22T00:27:37.022Z,2.56
2022-11-22T00:30:45.309Z,2.69
2022-11-22T00:33:53.511Z,2.60
2022-11-22T00:37:01.805Z,2.68
2022-11-22T00:40:12.096Z,2.48
2022-11-22T00:43:21.965Z,2.68
2022-11-22T00:46:30.244Z,2.72
2022-11-22T00:49:38.498Z,2.83
2022-11-22T00:52:46.729Z,2.93
2022-11-22T00:55:54.993Z,3.00
2022-11-22T00:59:05.175Z,3.05
2022-11-22T01:02:13.518Z,3.03
2022-11-22T01:05:21.836Z,3.12
2022-11-22T01:08:30.120Z,3.15
2022-11-22T01:11:38.353Z,2.83
2022-11-22T01:14:48.003Z,2.67
2022-11-22T01:17:56.419Z,2.64
2022-11-22T01:21:05.929Z,2.57
2022-11-22T01:24:14.125Z,2.64
2022-11-22T01:27:22.552Z,2.76
2022-11-22T01:30:32.369Z,2.86
2022-11-22T01:33:40.689Z,2.95
2022-11-22T01:36:48.940Z,3.01
2022-11-22T01:39:57.296Z,3.15
2022-11-22T01:43:12.723Z,3.28
2022-11-22T01:46:35.808Z,3.31
2022-11-22T01:49:52.878Z,3.37
2022-11-22T01:53:10.420Z,3.40
2022-11-22T01:56:23.611Z,3.51
2022-11-22T01:59:35.969Z,3.53
2022-11-22T02:02:49.985Z,3.49
2022-11-22T02:05:58.942Z,3.52
2022-11-22T02:09:13.118Z,3.50
2022-11-22T02:12:29.628Z,3.59
2022-11-22T02:15:38.432Z,3.60
2022-11-22T02:18:48.155Z,3.56
2022-11-22T02:22:02.309Z,3.59
2022-11-22T02:25:20.981Z,3.63
2022-11-22T02:28:37.275Z,3.79
2022-11-22T02:31:48.458Z,3.71
2022-11-22T02:34:56.846Z,3.62
2022-11-22T02:38:09.308Z,3.65
2022-11-22T02:41:18.298Z,3.74
2022-11-22T02:44:28.945Z,3.78
2022-11-22T02:47:37.203Z,3.79
2022-11-22T02:50:46.388Z,3.69
2022-11-22T02:53:56.859Z,3.73
2022-11-22T02:57:05.377Z,3.77
2022-11-22T03:00:16.951Z,3.80
2022-11-22T03:03:25.245Z,3.87
2022-11-22T03:06:33.810Z,3.81
2022-11-22T03:09:42.006Z,3.86
2022-11-22T03:12:50.173Z,3.78
2022-11-22T03:15:59.778Z,3.86
2022-11-22T03:19:08.228Z,3.92
2022-11-22T03:22:16.667Z,3.89
2022-11-22T03:25:24.816Z,3.86
2022-11-22T03:28:32.945Z,3.96
2022-11-22T03:31:42.475Z,3.78
2022-11-22T03:34:50.711Z,3.41
2022-11-22T03:37:58.929Z,3.47
2022-11-22T03:41:07.224Z,3.77
2022-11-22T03:44:15.490Z,3.93
2022-11-22T03:47:25.049Z,3.91
2022-11-22T03:50:34.138Z,3.89
2022-11-22T03:53:42.524Z,3.92
2022-11-22T03:56:50.718Z,3.95
2022-11-22T03:59:58.966Z,4.05
2022-11-22T04:03:08.427Z,3.98
2022-11-22T04:06:16.669Z,3.92
2022-11-22T04:09:27.721Z,3.85
2022-11-22T04:12:36.776Z,3.75
2022-11-22T04:15:46.443Z,3.79
2022-11-22T04:18:56.084Z,3.86
2022-11-22T04:22:03.270Z,3.90
2022-11-22T04:25:17.309Z,3.93
2022-11-22T04:28:53.613Z,3.96
2022-11-22T04:32:13.195Z,4.09
2022-11-22T04:35:25.476Z,4.12
2022-11-22T04:38:34.189Z,4.04
2022-11-22T04:41:42.482Z,4.07
2022-11-22T04:44:49.949Z,4.05
2022-11-22T04:48:00.910Z,4.07
2022-11-22T04:51:33.459Z,4.08
2022-11-22T04:54:41.618Z,4.06
2022-11-22T04:57:52.090Z,4.10
2022-11-22T05:01:06.224Z,4.00
2022-11-22T05:04:14.723Z,4.11
2022-11-22T05:07:24.729Z,4.20
2022-11-22T05:10:53.816Z,4.30
2022-11-22T05:14:02.076Z,4.35
2022-11-22T05:17:13.152Z,4.51
2022-11-22T05:20:21.981Z,4.57
2022-11-22T05:23:49.102Z,4.63
2022-11-22T05:26:57.465Z,4.62
2022-11-22T05:30:08.226Z,4.56
2022-11-22T05:33:16.493Z,4.63
2022-11-22T05:36:26.380Z,4.76
2022-11-22T05:39:35.911Z,4.80
2022-11-22T05:42:44.144Z,4.77
2022-11-22T05:45:52.497Z,4.87
2022-11-22T05:49:00.695Z,4.93
2022-11-22T05:52:08.944Z,4.98
2022-11-22T05:55:18.882Z,5.08
2022-11-22T05:58:27.048Z,5.11
2022-11-22T06:01:35.375Z,5.12
2022-11-22T06:04:43.617Z,5.15
2022-11-22T06:07:52.257Z,5.13
2022-11-22T06:11:08.856Z,5.21
2022-11-22T06:14:17.054Z,5.17
2022-11-22T06:17:25.387Z,5.14
2022-11-22T06:20:33.723Z,5.18
2022-11-22T06:23:42.115Z,5.15
2022-11-22T06:26:51.855Z,5.21
2022-11-22T06:30:00.164Z,5.14
2022-11-22T06:33:08.429Z,5.06
2022-11-22T06:36:19.686Z,5.12
2022-11-22T06:39:28.161Z,5.05
2022-11-22T06:42:38.203Z,5.08
2022-11-22T06:45:46.454Z,5.06
2022-11-22T06:48:55.151Z,4.96
2022-11-22T06:52:03.427Z,5.08
2022-11-22T06:55:34.612Z,5.04
2022-11-22T06:58:41.314Z,5.10
2022-11-22T07:01:49.743Z,5.11
2022-11-22T07:05:23.823Z,5.17
2022-11-22T07:08:26.557Z,5.14
2022-11-22T07:11:36.444Z,5.16
2022-11-22T07:14:46.264Z,5.18
2022-11-22T07:17:54.542Z,5.19
2022-11-22T07:21:09.426Z,5.27
2022-11-22T07:24:20.824Z,5.30
2022-11-22T07:27:29.088Z,5.33
2022-11-22T07:30:43.850Z,5.20
2022-11-22T07:33:52.521Z,5.28
2022-11-22T07:37:06.123Z,5.29
2022-11-22T07:40:17.881Z,5.19
2022-11-22T07:43:26.202Z,5.26
2022-11-22T07:46:35.852Z,5.24
2022-11-22T07:49:44.315Z,5.30
2022-11-22T07:52:57.724Z,5.33
2022-11-22T07:56:07.558Z,5.38
2022-11-22T07:59:15.769Z,5.47
2022-11-22T08:02:26.570Z,5.52
2022-11-22T08:05:35.409Z,5.44
2022-11-22T08:08:44.065Z,5.48
2022-11-22T08:11:52.494Z,5.44
2022-11-22T08:15:00.996Z,5.53
2022-11-22T08:18:10.848Z,5.50
2022-11-22T08:21:20.452Z,5.50
2022-11-22T08:24:28.622Z,5.57
2022-11-22T08:27:36.898Z,5.65
2022-11-22T08:30:45.224Z,5.65
2022-11-22T08:33:55.548Z,5.73
2022-11-22T08:37:03.883Z,5.72
2022-11-22T08:40:13.107Z,5.72
2022-11-22T08:43:21.802Z,5.72
2022-11-22T08:46:30.149Z,5.76
2022-11-22T08:49:40.526Z,5.73
2022-11-22T08:52:48.911Z,5.82
2022-11-22T08:55:59.962Z,5.83
2022-11-22T08:59:08.974Z,5.83
2022-11-22T09:02:17.403Z,5.92
2022-11-22T09:05:27.284Z,5.93
2022-11-22T09:08:38.736Z,5.92
2022-11-22T09:11:49.398Z,5.92
2022-11-22T09:14:57.670Z,5.89
2022-11-22T09:18:06.004Z,5.93
2022-11-22T09:21:18.301Z,5.95
2022-11-22T09:24:26.879Z,5.98
2022-11-22T09:27:36.449Z,5.98
2022-11-22T09:30:44.844Z,6.09
2022-11-22T09:33:53.527Z,6.20
2022-11-22T09:37:03.899Z,6.30
2022-11-22T09:40:13.447Z,6.26
2022-11-22T09:43:40.884Z,6.19
2022-11-22T09:46:57.167Z,6.19
2022-11-22T09:50:19.916Z,6.22
2022-11-22T09:53:39.211Z,6.33
2022-11-22T09:56:53.627Z,6.36
2022-11-22T10:00:06.886Z,6.32
2022-11-22T10:03:39.678Z,6.38
2022-11-22T10:06:54.085Z,6.38
2022-11-22T10:10:11.771Z,6.37
2022-11-22T10:13:30.652Z,6.34
2022-11-22T10:16:45.300Z,6.19
2022-11-22T10:20:05.812Z,6.22
2022-11-22T10:23:20.501Z,6.07
2022-11-22T10:26:33.687Z,5.97
2022-11-22T10:29:51.574Z,5.96
2022-11-22T10:33:14.733Z,5.82
2022-11-22T10:36:39.355Z,5.70
2022-11-22T10:40:09.188Z,5.76
2022-11-22T10:43:43.099Z,5.86
2022-11-22T10:47:04.803Z,5.79
2022-11-22T10:50:21.123Z,5.86
2022-11-22T10:53:49.396Z,5.87
2022-11-22T10:57:09.889Z,5.99
2022-11-22T11:00:22.810Z,6.12
2022-11-22T11:03:36.296Z,6.17
2022-11-22T11:07:11.053Z,6.19
2022-11-22T11:10:32.359Z,6.11
2022-11-22T11:13:48.603Z,6.07
2022-11-22T11:16:59.557Z,5.86
2022-11-22T11:20:22.673Z,5.63
2022-11-22T11:23:30.908Z,5.40
2022-11-22T11:26:39.724Z,5.43
2022-11-22T11:29:51.598Z,5.66
2022-11-22T11:33:01.421Z,5.81
2022-11-22T11:36:16.906Z,5.94
2022-11-22T11:39:30.182Z,5.93
2022-11-22T11:42:38.485Z,5.98
2022-11-22T11:45:47.016Z,5.84
2022-11-22T11:49:09.353Z,5.79
2022-11-22T11:52:23.119Z,5.70
2022-11-22T11:55:35.447Z,5.74
2022-11-22T11:58:44.062Z,5.63
2022-11-22T12:01:59.343Z,5.43
2022-11-22T12:05:28.730Z,5.39
2022-11-22T12:08:37.373Z,5.24
2022-11-22T12:11:53.436Z,5.26
2022-11-22T12:15:14.381Z,5.22
2022-11-22T12:18:40.030Z,5.18
2022-11-22T12:22:01.995Z,5.29
2022-11-22T12:25:34.275Z,5.13
2022-11-22T12:28:44.179Z,5.06
2022-11-22T12:31:58.841Z,5.20
2022-11-22T12:35:13.726Z,5.13
2022-11-22T12:38:32.149Z,5.28
2022-11-22T12:41:43.265Z,5.52
2022-11-22T12:45:00.021Z,5.76
2022-11-22T12:48:24.945Z,5.81
2022-11-22T12:51:44.970Z,5.86
2022-11-22T12:55:06.007Z,5.68
2022-11-22T12:58:25.217Z,5.90
2022-11-22T13:01:45.233Z,6.14
2022-11-22T13:05:01.750Z,6.08
2022-11-22T13:08:19.403Z,6.12
2022-11-22T13:11:36.607Z,6.11
2022-11-22T13:14:50.095Z,6.10
2022-11-22T13:17:58.775Z,6.08
2022-11-22T13:21:21.035Z,6.04
2022-11-22T13:24:48.173Z,6.02
2022-11-22T13:28:02.494Z,6.03
2022-11-22T13:31:20.772Z,6.09
2022-11-22T13:34:30.650Z,6.14
2022-11-22T13:37:43.112Z,6.10
2022-11-22T13:40:52.057Z,6.14
2022-11-22T13:44:28.732Z,6.06
2022-11-22T13:47:41.775Z,5.93
2022-11-22T13:51:01.841Z,5.90
2022-11-22T13:55:15.211Z,5.91
2022-11-22T13:59:04.828Z,5.70
2022-11-22T14:02:24.883Z,5.75
2022-11-22T14:05:41.653Z,5.71
2022-11-22T14:08:50.472Z,5.66
2022-11-22T14:12:32.299Z,5.55
2022-11-22T14:16:27.606Z,5.34
2022-11-22T14:20:02.288Z,5.35
2022-11-22T14:23:28.650Z,5.40
2022-11-22T14:26:51.439Z,5.20
2022-11-22T14:30:14.763Z,5.24
2022-11-22T14:33:25.881Z,5.21
2022-11-22T14:36:36.009Z,5.18
2022-11-22T14:40:14.925Z,5.01
2022-11-22T14:43:35.763Z,5.16
2022-11-22T14:46:53.886Z,5.06
2022-11-22T14:50:10.021Z,4.94
2022-11-22T14:53:39.901Z,4.89
2022-11-22T14:56:50.539Z,4.88
2022-11-22T15:00:19.053Z,4.83
2022-11-22T15:09:10.446Z,4.83
2022-11-22T15:09:19.465Z,4.66
2022-11-22T15:12:16.358Z,4.82
2022-11-22T15:58:32.271Z,4.54
2022-11-22T16:01:44.258Z,4.56
2022-11-22T16:06:06.946Z,4.49
2022-11-22T16:08:32.414Z,4.53
2022-11-22T16:11:41.557Z,4.58
2022-11-22T16:14:52.905Z,4.53
2022-11-22T16:18:14.023Z,4.60
2022-11-22T16:21:29.312Z,4.53
2022-11-22T16:24:38.677Z,4.46
2022-11-22T16:27:48.535Z,4.39
2022-11-22T16:30:59.159Z,4.42
2022-11-22T16:34:13.911Z,4.51
2022-11-22T16:37:30.727Z,4.43
2022-11-22T16:40:45.114Z,4.34
2022-11-22T16:43:56.159Z,4.30
2022-11-22T16:47:04.567Z,4.29
2022-11-22T16:50:13.882Z,4.35
2022-11-22T16:53:23.864Z,4.30
2022-11-22T16:56:34.309Z,4.44
2022-11-22T16:59:43.407Z,4.16
2022-11-22T17:02:51.640Z,4.14
2022-11-22T17:05:59.892Z,4.23
2022-11-22T17:09:10.930Z,4.19
2022-11-22T17:12:30.474Z,4.20
2022-11-22T17:15:43.359Z,4.17
2022-11-22T17:18:52.969Z,4.08
2022-11-22T17:22:01.863Z,4.01
2022-11-22T17:25:19.671Z,4.11
2022-11-22T17:28:27.936Z,4.14
2022-11-22T17:31:37.034Z,4.04
2022-11-22T17:34:45.251Z,4.14
2022-11-22T17:37:55.517Z,4.26
2022-11-22T17:41:05.288Z,4.38
2022-11-22T17:44:17.956Z,4.39
2022-11-22T17:47:27.473Z,4.28
2022-11-22T17:50:35.799Z,4.29
2022-11-22T17:53:44.100Z,4.26
2022-11-22T17:56:53.788Z,4.29
2022-11-22T18:00:02.020Z,4.29
2022-11-22T18:03:13.255Z,4.19
2022-11-22T18:06:22.749Z,4.28
2022-11-22T18:09:31.623Z,4.23
2022-11-22T18:12:58.702Z,4.25
2022-11-22T18:16:14.127Z,4.29
2022-11-22T18:19:22.475Z,4.18
2022-11-22T18:22:31.242Z,4.19
2022-11-22T18:25:39.556Z,4.18
2022-11-22T18:29:08.642Z,4.17
2022-11-22T18:32:17.393Z,4.15
2022-11-22T18:35:25.731Z,4.10
2022-11-22T18:38:36.499Z,4.07
2022-11-22T18:41:47.248Z,4.01
2022-11-22T18:44:57.307Z,4.16
2022-11-22T18:48:06.974Z,4.19
2022-11-22T18:51:15.203Z,4.17
2022-11-22T18:54:23.499Z,4.08
2022-11-22T18:57:31.770Z,4.07
2022-11-22T19:00:43.148Z,4.07
2022-11-22T19:03:51.452Z,3.94
2022-11-22T19:07:00.845Z,4.06
2022-11-22T19:10:10.882Z,4.00
2022-11-22T19:13:19.032Z,3.97
2022-11-22T19:16:30.434Z,3.94
2022-11-22T19:19:38.772Z,3.95
2022-11-22T19:22:47.483Z,3.77
2022-11-22T19:25:55.815Z,3.75
2022-11-22T19:29:04.947Z,3.77
2022-11-22T19:32:17.762Z,3.91
2022-11-22T19:35:27.136Z,3.84
2022-11-22T19:38:37.473Z,3.80
2022-11-22T19:41:46.394Z,3.78
2022-11-22T19:44:54.667Z,3.74
2022-11-22T19:48:05.133Z,3.84
2022-11-22T19:51:16.122Z,3.80
2022-11-22T19:54:24.399Z,3.84
2022-11-22T19:57:32.633Z,3.83
2022-11-22T20:00:41.523Z,3.71
2022-11-22T20:03:56.939Z,3.83
2022-11-22T20:07:05.327Z,3.77
2022-11-22T20:10:14.159Z,3.77
2022-11-22T20:13:22.383Z,3.82
2022-11-22T20:16:32.889Z,3.71
2022-11-22T20:19:42.498Z,3.73
2022-11-22T20:22:50.927Z,3.79
2022-11-22T20:26:03.879Z,3.70
2022-11-22T20:29:15.114Z,3.67
2022-11-22T20:32:24.161Z,3.78
2022-11-22T20:35:35.047Z,3.69
2022-11-22T20:38:45.898Z,3.75
2022-11-22T20:42:26.030Z,3.82
2022-11-22T20:45:29.985Z,3.80
2022-11-22T20:48:42.497Z,3.68
2022-11-22T20:51:52.938Z,3.69
2022-11-22T20:55:05.055Z,3.74
2022-11-22T20:58:13.892Z,3.59
2022-11-22T21:01:26.532Z,3.67
2022-11-22T21:04:34.924Z,3.54
2022-11-22T21:07:45.814Z,3.68
2022-11-22T21:10:54.624Z,3.70
2022-11-22T21:14:03.157Z,3.50
2022-11-22T21:17:39.367Z,3.65
2022-11-22T21:20:40.887Z,3.61
2022-11-22T21:23:52.530Z,3.59
2022-11-22T21:27:00.740Z,3.82
2022-11-22T21:30:11.299Z,3.73
2022-11-22T21:33:19.672Z,3.80
2022-11-22T21:36:29.013Z,3.91
2022-11-22T21:39:38.792Z,4.03
2022-11-22T21:42:47.102Z,4.07
2022-11-22T21:45:56.772Z,4.14
2022-11-22T21:49:05.099Z,4.16
2022-11-22T21:52:13.328Z,4.16
2022-11-22T21:55:23.393Z,4.20
2022-11-22T21:58:32.022Z,4.15
2022-11-22T22:01:40.789Z,4.12
2022-11-22T22:04:48.984Z,4.06
2022-11-22T22:07:57.199Z,4.06
2022-11-22T22:11:07.474Z,4.10
2022-11-22T22:14:16.259Z,4.10
2022-11-22T22:17:24.525Z,4.16
2022-11-22T22:20:32.704Z,4.22
2022-11-22T22:23:43.810Z,4.18
2022-11-22T22:26:53.580Z,4.11
2022-11-22T22:30:02.172Z,4.18
2022-11-22T22:33:10.369Z,4.20
2022-11-22T22:36:18.565Z,4.18
2022-11-22T22:39:26.910Z,4.23
2022-11-22T22:42:36.764Z,4.34
2022-11-22T22:45:44.982Z,4.33
2022-11-22T22:48:56.100Z,4.38
2022-11-22T22:52:04.957Z,4.33
2022-11-22T22:55:13.120Z,4.42
2022-11-22T22:58:22.664Z,4.46
2022-11-22T23:01:32.655Z,4.45
2022-11-22T23:04:41.154Z,4.46
2022-11-22T23:07:49.443Z,4.40
2022-11-22T23:11:05.189Z,4.34
2022-11-22T23:14:17.161Z,4.26
2022-11-22T23:17:25.877Z,4.12
2022-11-22T23:20:35.603Z,4.20
2022-11-22T23:23:43.807Z,4.26
2022-11-22T23:26:52.381Z,4.36
2022-11-22T23:30:02.025Z,4.46
2022-11-22T23:33:10.212Z,4.34
2022-11-22T23:36:21.680Z,4.36
2022-11-22T23:39:30.243Z,4.35
2022-11-22T23:42:38.739Z,4.38
2022-11-22T23:45:48.687Z,4.40
2022-11-22T23:48:59.221Z,4.41
2022-11-22T23:52:07.362Z,4.38
2022-11-22T23:55:15.763Z,4.40
2022-11-22T23:58:24.030Z,4.45
